createdAt,value
2023-04-11T00:02:07.385Z,6.80
2023-04-11T00:04:41.386Z,8.10
2023-04-11T00:07:14.313Z,7.10
2023-04-11T00:09:47.755Z,6.40
2023-04-11T00:12:20.521Z,8.00
2023-04-11T00:14:54.039Z,7.40
2023-04-11T00:17:31.745Z,8.40
2023-04-11T00:20:08.467Z,7.40
2023-04-11T00:22:44.307Z,7.00
2023-04-11T00:25:17.179Z,8.30
2023-04-11T00:27:49.840Z,7.70
2023-04-11T00:30:23.175Z,6.60
2023-04-11T00:32:57.021Z,6.50
2023-04-11T00:35:38.285Z,6.70
2023-04-11T00:38:13.082Z,6.70
2023-04-11T00:40:46.764Z,8.10
2023-04-11T00:43:39.498Z,7.20
2023-04-11T00:46:13.072Z,7.50
2023-04-11T00:48:45.888Z,7.40
2023-04-11T00:51:30.247Z,6.80
2023-04-11T00:54:04.860Z,6.30
2023-04-11T00:56:37.792Z,6.80
2023-04-11T00:59:11.632Z,6.50
2023-04-11T01:01:44.617Z,6.00
2023-04-11T01:04:19.281Z,7.00
2023-04-11T01:06:53.898Z,6.30
2023-04-11T01:09:27.562Z,6.00
2023-04-11T01:12:00.367Z,7.30
2023-04-11T01:14:33.778Z,6.30
2023-04-11T01:17:08.232Z,5.80
2023-04-11T01:19:41.352Z,5.90
2023-04-11T01:22:15.239Z,6.00
2023-04-11T01:24:48.530Z,6.40
2023-04-11T01:27:22.161Z,6.40
2023-04-11T01:29:55.492Z,7.00
2023-04-11T01:32:30.642Z,6.90
2023-04-11T01:35:03.801Z,7.30
2023-04-11T01:37:36.808Z,6.60
2023-04-11T01:40:12.332Z,6.90
2023-04-11T01:42:45.397Z,6.40
2023-04-11T01:45:18.201Z,6.50
2023-04-11T01:47:51.300Z,5.70
2023-04-11T01:50:24.561Z,6.50
2023-04-11T01:52:57.823Z,7.60
2023-04-11T01:55:31.448Z,6.60
2023-04-11T01:58:04.849Z,7.20
2023-04-11T02:00:38.260Z,5.80
2023-04-11T02:03:12.087Z,6.40
2023-04-11T02:05:45.290Z,6.60
2023-04-11T02:08:21.898Z,6.70
2023-04-11T02:10:54.718Z,7.00
2023-04-11T02:13:27.981Z,7.10
2023-04-11T02:16:15.645Z,6.70
2023-04-11T02:18:50.244Z,6.60
2023-04-11T02:21:22.938Z,6.90
2023-04-11T02:24:00.849Z,6.20
2023-04-11T02:26:34.599Z,7.00
2023-04-11T02:29:07.394Z,6.50
2023-04-11T02:31:41.499Z,6.80
2023-04-11T02:34:16.719Z,6.20
2023-04-11T02:36:56.021Z,6.70
2023-04-11T02:39:28.741Z,6.80
2023-04-11T02:42:01.898Z,6.60
2023-04-11T02:44:37.189Z,7.30
2023-04-11T02:47:10.234Z,7.20
2023-04-11T02:49:45.646Z,6.90
2023-04-11T02:52:20.666Z,6.70
2023-04-11T02:54:53.627Z,6.70
2023-04-11T02:57:26.548Z,7.50
2023-04-11T03:00:00.102Z,6.70
2023-04-11T03:02:43.615Z,6.20
2023-04-11T03:05:18.186Z,6.80
2023-04-11T03:07:53.308Z,7.60
2023-04-11T03:10:29.342Z,6.90
2023-04-11T03:13:03.790Z,8.30
2023-04-11T03:15:36.971Z,8.90
2023-04-11T03:18:13.812Z,10.00
2023-04-11T03:20:49.291Z,8.50
2023-04-11T03:23:23.656Z,10.00
2023-04-11T03:25:58.662Z,9.90
2023-04-11T03:28:31.375Z,8.80
2023-04-11T03:31:07.210Z,9.10
2023-04-11T03:33:40.592Z,11.50
2023-04-11T03:36:13.612Z,10.60
2023-04-11T03:38:47.777Z,11.80
2023-04-11T03:41:21.941Z,10.00
2023-04-11T03:43:56.122Z,9.40
2023-04-11T03:46:30.156Z,9.00
2023-04-11T03:49:04.777Z,6.80
2023-04-11T03:51:37.646Z,6.60
2023-04-11T03:54:12.329Z,7.70
2023-04-11T03:56:47.631Z,6.90
2023-04-11T03:59:28.660Z,7.70
2023-04-11T04:02:09.949Z,7.80
2023-04-11T04:04:48.938Z,7.50
2023-04-11T04:07:42.947Z,8.40
2023-04-11T04:10:23.648Z,7.40
2023-04-11T04:12:58.271Z,6.30
2023-04-11T04:15:40.303Z,6.50
2023-04-11T04:18:14.053Z,8.00
2023-04-11T04:20:50.943Z,7.50
2023-04-11T04:23:27.188Z,7.60
2023-04-11T04:26:25.934Z,9.20
2023-04-11T04:29:13.089Z,9.20
2023-04-11T04:32:00.539Z,8.50
2023-04-11T04:34:47.832Z,9.10
2023-04-11T04:37:25.724Z,8.70
2023-04-11T04:40:32.717Z,10.20
2023-04-11T04:43:18.617Z,8.80
2023-04-11T04:45:59.762Z,9.10
2023-04-11T04:48:38.371Z,8.90
2023-04-11T04:51:11.539Z,10.80
2023-04-11T04:53:52.674Z,7.50
2023-04-11T04:56:26.468Z,7.70
2023-04-11T04:58:59.481Z,8.10
2023-04-11T05:01:40.404Z,8.40
2023-04-11T05:04:15.043Z,8.30
2023-04-11T05:06:55.004Z,12.60
2023-04-11T05:09:32.861Z,10.00
2023-04-11T05:12:31.900Z,14.20
2023-04-11T05:15:11.954Z,17.10
2023-04-11T05:17:49.425Z,14.30
2023-04-11T05:20:24.919Z,14.00
2023-04-11T05:22:57.890Z,12.20
2023-04-11T05:25:32.624Z,11.10
2023-04-11T05:28:06.414Z,12.00
2023-04-11T05:30:39.311Z,11.40
2023-04-11T05:33:15.690Z,11.70
2023-04-11T05:35:50.204Z,10.30
2023-04-11T05:38:23.994Z,10.30
2023-04-11T05:40:56.745Z,10.60
2023-04-11T05:43:29.676Z,11.10
2023-04-11T05:46:03.750Z,8.10
2023-04-11T05:48:38.494Z,9.00
2023-04-11T05:51:14.977Z,12.10
2023-04-11T05:53:47.893Z,11.20
2023-04-11T05:56:20.793Z,8.80
2023-04-11T05:58:56.278Z,9.10
2023-04-11T06:01:30.639Z,9.10
2023-04-11T06:04:03.825Z,9.00
2023-04-11T06:06:53.367Z,8.00
2023-04-11T06:09:27.175Z,6.70
2023-04-11T06:12:00.088Z,6.20
2023-04-11T06:14:37.023Z,7.00
2023-04-11T06:17:11.218Z,6.50
2023-04-11T06:19:45.077Z,6.00
2023-04-11T06:22:18.464Z,6.40
2023-04-11T06:24:51.577Z,7.10
2023-04-11T06:27:24.397Z,7.60
2023-04-11T06:29:57.531Z,6.10
2023-04-11T06:32:30.382Z,7.90
2023-04-11T06:35:03.368Z,7.10
2023-04-11T06:37:36.786Z,6.00
2023-04-11T06:40:12.969Z,5.10
2023-04-11T06:42:48.795Z,5.70
2023-04-11T06:45:21.994Z,5.50
2023-04-11T06:47:55.790Z,5.70
2023-04-11T06:50:29.454Z,6.00
2023-04-11T06:53:08.102Z,5.30
2023-04-11T06:55:42.797Z,5.70
2023-04-11T06:58:16.212Z,5.80
2023-04-11T07:00:49.948Z,6.10
2023-04-11T07:03:25.622Z,5.60
2023-04-11T07:05:58.600Z,6.70
2023-04-11T07:08:31.698Z,6.70
2023-04-11T07:11:04.943Z,8.70
2023-04-11T07:13:38.602Z,7.70
2023-04-11T07:16:13.491Z,6.30
2023-04-11T07:18:47.132Z,6.90
2023-04-11T07:21:19.743Z,6.10
2023-04-11T07:23:53.691Z,6.30
2023-04-11T07:26:32.689Z,7.70
2023-04-11T07:29:09.107Z,8.60
2023-04-11T07:31:45.318Z,7.90
2023-04-11T07:34:18.420Z,6.50
2023-04-11T07:36:53.640Z,6.40
2023-04-11T07:39:27.586Z,8.00
2023-04-11T07:42:02.835Z,5.20
2023-04-11T07:44:36.579Z,11.10
2023-04-11T07:47:09.763Z,12.00
2023-04-11T07:49:42.912Z,10.00
2023-04-11T07:52:15.763Z,10.00
2023-04-11T07:54:48.638Z,11.80
2023-04-11T07:57:21.915Z,9.20
2023-04-11T07:59:54.789Z,6.50
2023-04-11T08:02:28.491Z,6.70
2023-04-11T08:05:02.051Z,9.40
2023-04-11T08:07:37.030Z,7.90
2023-04-11T08:10:11.712Z,9.30
2023-04-11T08:12:44.701Z,9.50
2023-04-11T08:15:21.910Z,11.70
2023-04-11T08:17:56.774Z,10.50
2023-04-11T08:20:29.873Z,9.70
2023-04-11T08:25:44.296Z,11.40
2023-04-11T08:28:17.151Z,7.90
2023-04-11T08:30:53.466Z,7.70
2023-04-11T08:33:27.849Z,6.80
2023-04-11T08:36:01.158Z,5.20
2023-04-11T08:38:34.154Z,5.60
2023-04-11T08:41:07.290Z,6.60
2023-04-11T08:43:41.356Z,7.10
2023-04-11T08:46:14.225Z,5.60
2023-04-11T08:48:48.945Z,4.80
2023-04-11T08:51:27.091Z,6.20
2023-04-11T08:54:01.797Z,6.00
2023-04-11T08:56:35.261Z,6.30
2023-04-11T08:59:13.860Z,6.40
2023-04-11T09:01:47.339Z,6.60
2023-04-11T09:04:20.642Z,5.30
2023-04-11T09:07:01.507Z,6.40
2023-04-11T09:09:35.253Z,6.30
2023-04-11T09:12:09.417Z,6.00
2023-04-11T09:14:44.583Z,6.70
2023-04-11T09:17:19.192Z,6.40
2023-04-11T09:19:56.392Z,6.20
2023-04-11T09:22:38.389Z,7.00
2023-04-11T09:25:12.249Z,7.10
2023-04-11T09:27:46.870Z,8.00
2023-04-11T09:30:25.211Z,9.00
2023-04-11T09:32:58.641Z,6.20
2023-04-11T09:35:31.965Z,7.80
2023-04-11T09:38:09.642Z,12.20
2023-04-11T09:40:46.130Z,9.10
2023-04-11T09:43:20.400Z,8.20
2023-04-11T09:45:54.769Z,6.10
2023-04-11T09:48:39.444Z,7.80
2023-04-11T09:51:34.418Z,8.50
2023-04-11T09:54:12.287Z,7.50
2023-04-11T09:56:45.737Z,10.10
2023-04-11T09:59:19.152Z,11.90
2023-04-11T10:01:52.211Z,12.00
2023-04-11T10:04:25.370Z,6.20
2023-04-11T10:07:05.149Z,5.30
2023-04-11T10:09:40.352Z,5.60
2023-04-11T10:12:14.820Z,5.10
2023-04-11T10:14:48.774Z,5.70
2023-04-11T10:17:24.006Z,5.80
2023-04-11T10:19:59.522Z,4.80
2023-04-11T10:23:02.554Z,4.60
2023-04-11T10:25:53.038Z,4.70
2023-04-11T10:28:38.398Z,4.20
2023-04-11T10:31:14.309Z,5.80
2023-04-11T10:34:14.990Z,5.40
2023-04-11T10:37:13.403Z,5.90
2023-04-11T10:40:10.449Z,6.40
2023-04-11T10:42:48.645Z,7.40
2023-04-11T10:45:24.725Z,6.00
2023-04-11T10:48:13.649Z,6.00
2023-04-11T10:50:49.191Z,5.60
2023-04-11T10:53:38.702Z,5.50
2023-04-11T10:56:12.094Z,5.30
2023-04-11T10:58:46.878Z,6.40
2023-04-11T11:01:31.225Z,8.20
2023-04-11T11:04:10.826Z,11.30
2023-04-11T11:06:50.848Z,12.20
2023-04-11T11:09:29.109Z,12.10
2023-04-11T11:12:11.266Z,13.60
2023-04-11T11:14:46.900Z,10.00
2023-04-11T11:17:19.953Z,7.50
2023-04-11T11:19:52.930Z,11.00
2023-04-11T11:22:26.856Z,6.80
2023-04-11T11:25:09.875Z,6.00
2023-04-11T11:27:43.517Z,10.90
2023-04-11T11:30:18.870Z,15.70
2023-04-11T11:32:52.722Z,10.70
2023-04-11T11:35:26.441Z,6.20
2023-04-11T11:37:59.274Z,4.50
2023-04-11T11:40:34.245Z,4.60
2023-04-11T11:43:08.498Z,5.40
2023-04-11T11:45:41.249Z,4.80
2023-04-11T11:48:24.258Z,6.30
2023-04-11T11:51:00.336Z,5.50
2023-04-11T11:53:33.851Z,4.60
2023-04-11T11:56:17.246Z,5.80
2023-04-11T11:58:50.942Z,5.00
2023-04-11T12:01:23.689Z,8.60
2023-04-11T12:03:57.981Z,6.70
2023-04-11T12:06:33.464Z,6.10
2023-04-11T12:09:10.361Z,14.00
2023-04-11T12:11:46.292Z,19.80
2023-04-11T12:14:26.541Z,17.30
2023-04-11T12:16:59.231Z,13.30
2023-04-11T12:19:35.168Z,11.60
2023-04-11T12:22:07.989Z,12.50
2023-04-11T12:24:41.565Z,8.70
2023-04-11T12:27:14.616Z,9.00
2023-04-11T12:29:47.692Z,9.80
2023-04-11T12:32:20.893Z,10.00
2023-04-11T12:34:54.245Z,7.80
2023-04-11T12:37:27.028Z,12.00
2023-04-11T12:39:59.863Z,14.90
2023-04-11T12:42:34.788Z,11.50
2023-04-11T12:45:12.265Z,10.00
2023-04-11T12:47:45.544Z,8.90
2023-04-11T12:50:18.511Z,9.30
2023-04-11T12:52:52.564Z,7.70
2023-04-11T12:55:26.117Z,10.40
2023-04-11T12:58:00.162Z,10.80
2023-04-11T13:00:33.401Z,11.20
2023-04-11T13:03:19.975Z,16.40
2023-04-11T13:05:53.632Z,11.10
2023-04-11T13:08:27.475Z,7.10
2023-04-11T13:11:00.319Z,12.40
2023-04-11T13:13:33.956Z,14.50
2023-04-11T13:16:08.671Z,21.10
2023-04-11T13:18:41.376Z,17.90
2023-04-11T13:21:14.870Z,16.80
2023-04-11T13:23:48.075Z,13.90
2023-04-11T13:26:21.638Z,12.90
2023-04-11T13:28:54.963Z,11.30
2023-04-11T13:31:29.010Z,12.90
2023-04-11T13:34:02.470Z,16.30
2023-04-11T13:36:35.897Z,17.60
2023-04-11T13:39:09.004Z,17.60
2023-04-11T13:41:47.084Z,19.10
2023-04-11T13:44:20.477Z,14.50
2023-04-11T13:46:53.583Z,14.70
2023-04-11T13:49:27.189Z,14.50
2023-04-11T13:52:00.161Z,20.70
2023-04-11T13:54:33.060Z,21.60
2023-04-11T13:57:09.890Z,22.80
2023-04-11T13:59:43.265Z,21.20
2023-04-11T14:02:16.457Z,12.60
2023-04-11T14:04:49.769Z,4.60
2023-04-11T14:07:22.597Z,4.20
2023-04-11T14:09:56.013Z,7.30
2023-04-11T14:12:32.653Z,8.60
2023-04-11T14:15:06.085Z,8.60
2023-04-11T14:17:39.129Z,7.80
2023-04-11T14:20:14.226Z,6.10
2023-04-11T14:22:46.965Z,5.00
2023-04-11T14:25:21.108Z,7.80
2023-04-11T14:27:53.918Z,8.90
2023-04-11T14:30:27.082Z,8.40
2023-04-11T14:33:01.696Z,8.70
2023-04-11T14:35:34.850Z,8.40
2023-04-11T14:38:07.688Z,13.50
2023-04-11T14:40:41.674Z,16.90
2023-04-11T14:43:15.023Z,19.90
2023-04-11T14:45:51.987Z,20.10
2023-04-11T14:48:27.312Z,20.40
2023-04-11T14:51:00.816Z,17.30
2023-04-11T14:53:36.087Z,19.80
2023-04-11T14:56:10.132Z,20.00
2023-04-11T14:58:48.072Z,18.80
2023-04-11T15:01:21.849Z,17.20
2023-04-11T15:03:55.944Z,13.50
2023-04-11T15:06:35.367Z,10.00
2023-04-11T15:09:08.745Z,10.90
2023-04-11T15:11:41.528Z,10.70
2023-04-11T15:14:23.988Z,11.60
2023-04-11T15:16:57.254Z,13.30
2023-04-11T15:19:30.191Z,9.10
2023-04-11T15:22:07.446Z,6.20
2023-04-11T15:24:40.402Z,5.60
2023-04-11T15:27:13.262Z,5.90
2023-04-11T15:29:45.967Z,6.30
2023-04-11T15:32:19.164Z,5.00
2023-04-11T15:34:52.108Z,5.00
2023-04-11T15:37:26.156Z,5.10
2023-04-11T15:40:00.034Z,5.60
2023-04-11T15:42:35.638Z,5.20
2023-04-11T15:45:10.389Z,5.50
2023-04-11T15:47:43.243Z,5.60
2023-04-11T15:50:17.716Z,6.80
2023-04-11T15:52:50.710Z,5.60
2023-04-11T15:55:23.709Z,5.70
2023-04-11T15:57:57.228Z,6.20
2023-04-11T16:00:30.315Z,5.80
2023-04-11T16:03:23.383Z,5.40
2023-04-11T16:05:57.860Z,5.20
2023-04-11T16:08:30.758Z,5.60
2023-04-11T16:11:05.068Z,6.00
2023-04-11T16:13:38.297Z,6.00
2023-04-11T16:16:12.657Z,4.90
2023-04-11T16:18:47.835Z,7.00
2023-04-11T16:21:21.200Z,6.70
2023-04-11T16:23:55.508Z,5.20
2023-04-11T16:26:29.078Z,5.20
2023-04-11T16:29:02.116Z,5.00
2023-04-11T16:31:35.752Z,5.50
2023-04-11T16:34:08.660Z,5.70
2023-04-11T16:36:41.798Z,5.20
2023-04-11T16:39:14.613Z,5.50
2023-04-11T16:41:47.872Z,6.00
2023-04-11T16:44:21.939Z,6.50
2023-04-11T16:46:55.317Z,7.10
2023-04-11T16:49:28.345Z,6.80
2023-04-11T16:52:01.176Z,7.10
2023-04-11T16:54:36.796Z,7.90
2023-04-11T16:57:09.953Z,10.60
2023-04-11T16:59:44.544Z,15.70
2023-04-11T17:02:17.572Z,27.60
2023-04-11T17:04:50.743Z,24.10
2023-04-11T17:07:28.764Z,20.50
2023-04-11T17:10:02.259Z,18.80
2023-04-11T17:12:35.575Z,19.10
2023-04-11T17:15:10.601Z,18.40
2023-04-11T17:17:45.231Z,18.60
2023-04-11T17:20:18.224Z,18.70
2023-04-11T17:22:52.782Z,16.00
2023-04-11T17:25:25.820Z,16.10
2023-04-11T17:28:00.794Z,18.60
2023-04-11T17:30:34.267Z,16.80
2023-04-11T17:33:08.874Z,16.90
2023-04-11T17:35:42.064Z,18.60
2023-04-11T17:38:16.749Z,16.50
2023-04-11T17:40:51.260Z,17.30
2023-04-11T17:43:24.457Z,15.80
2023-04-11T17:45:58.647Z,14.10
2023-04-11T17:48:32.295Z,13.00
2023-04-11T17:51:05.829Z,13.30
2023-04-11T17:53:41.326Z,15.00
2023-04-11T17:56:15.134Z,14.00
2023-04-11T17:58:48.507Z,10.20
2023-04-11T18:01:21.803Z,11.10
2023-04-11T18:03:56.119Z,9.10
2023-04-11T18:06:29.899Z,10.40
2023-04-11T18:09:04.130Z,8.20
2023-04-11T18:11:37.239Z,6.80
2023-04-11T18:14:10.155Z,6.20
2023-04-11T18:16:44.758Z,8.50
2023-04-11T18:19:17.954Z,7.60
2023-04-11T18:21:50.953Z,9.30
2023-04-11T18:24:24.010Z,8.40
2023-04-11T18:26:56.804Z,7.20
2023-04-11T18:29:32.336Z,7.20
2023-04-11T18:32:05.426Z,6.80
2023-04-11T18:34:38.398Z,7.60
2023-04-11T18:37:12.413Z,11.80
2023-04-11T18:39:45.984Z,9.40
2023-04-11T18:42:24.871Z,10.50
2023-04-11T18:45:00.016Z,10.50
2023-04-11T18:47:33.266Z,10.90
2023-04-11T18:50:07.100Z,12.00
2023-04-11T18:52:39.991Z,10.30
2023-04-11T18:55:13.304Z,11.80
2023-04-11T18:57:48.842Z,11.40
2023-04-11T19:00:27.804Z,10.10
2023-04-11T19:03:01.900Z,14.40
2023-04-11T19:05:36.151Z,8.00
2023-04-11T19:08:09.591Z,7.40
2023-04-11T19:10:42.404Z,11.30
2023-04-11T19:13:16.041Z,11.30
2023-04-11T19:15:50.853Z,11.00
2023-04-11T19:18:23.874Z,12.10
2023-04-11T19:20:56.584Z,11.30
2023-04-11T19:23:29.460Z,10.10
2023-04-11T19:26:02.831Z,13.00
2023-04-11T19:28:35.982Z,13.20
2023-04-11T19:31:10.096Z,16.20
2023-04-11T19:33:43.538Z,16.90
2023-04-11T19:36:16.819Z,13.20
2023-04-11T19:38:50.362Z,18.00
2023-04-11T19:41:23.102Z,15.80
2023-04-11T19:43:56.527Z,22.00
2023-04-11T19:46:29.983Z,15.80
2023-04-11T19:49:03.162Z,18.10
2023-04-11T19:51:36.337Z,18.70
2023-04-11T19:54:09.286Z,20.70
2023-04-11T19:56:45.601Z,22.60
2023-04-11T19:59:18.470Z,27.80
2023-04-11T20:01:51.839Z,36.10
2023-04-11T20:04:25.368Z,43.60
2023-04-11T20:07:01.031Z,38.20
2023-04-11T20:09:45.278Z,40.00
2023-04-11T20:12:18.610Z,34.30
2023-04-11T20:14:51.689Z,30.40
2023-04-11T20:17:25.978Z,27.80
2023-04-11T20:19:58.921Z,27.80
2023-04-11T20:22:32.017Z,28.00
2023-04-11T20:25:05.132Z,34.10
2023-04-11T20:27:38.608Z,36.80
2023-04-11T20:30:13.348Z,41.50
2023-04-11T20:32:46.693Z,43.60
2023-04-11T20:35:19.553Z,37.60
2023-04-11T20:37:54.285Z,48.40
2023-04-11T20:40:27.847Z,59.30
2023-04-11T20:43:02.414Z,58.00
2023-04-11T20:45:36.509Z,60.30
2023-04-11T20:48:13.177Z,56.30
2023-04-11T20:50:47.507Z,47.50
2023-04-11T20:53:22.397Z,44.70
2023-04-11T20:55:55.787Z,48.70
2023-04-11T20:58:29.507Z,48.40
2023-04-11T21:01:02.359Z,54.10
2023-04-11T21:03:38.833Z,58.90
2023-04-11T21:06:12.220Z,53.30
2023-04-11T21:08:45.318Z,52.50
2023-04-11T21:11:18.463Z,55.30
2023-04-11T21:13:53.887Z,50.30
2023-04-11T21:16:27.148Z,45.30
2023-04-11T21:18:59.848Z,47.70
2023-04-11T21:21:34.499Z,48.80
2023-04-11T21:24:09.575Z,55.10
2023-04-11T21:26:42.828Z,59.70
2023-04-11T21:29:18.730Z,55.10
2023-04-11T21:31:51.612Z,58.40
2023-04-11T21:34:26.212Z,58.50
2023-04-11T21:36:59.857Z,51.10
2023-04-11T21:39:37.143Z,52.20
2023-04-11T21:42:10.695Z,53.60
2023-04-11T21:44:43.355Z,45.30
2023-04-11T21:47:16.114Z,50.20
2023-04-11T21:49:50.940Z,45.80
2023-04-11T21:52:23.935Z,43.80
2023-04-11T21:54:56.778Z,33.40
2023-04-11T21:57:29.697Z,32.40
2023-04-11T22:00:03.866Z,23.90
2023-04-11T22:02:46.746Z,19.70
2023-04-11T22:05:21.748Z,15.50
2023-04-11T22:07:59.497Z,14.80
2023-04-11T22:10:46.899Z,15.20
2023-04-11T22:13:22.151Z,19.80
2023-04-11T22:16:05.582Z,17.80
2023-04-11T22:18:46.878Z,14.90
2023-04-11T22:21:26.871Z,15.70
2023-04-11T22:24:00.018Z,15.30
2023-04-11T22:26:35.273Z,16.60
2023-04-11T22:29:08.075Z,15.60
2023-04-11T22:31:40.941Z,13.10
2023-04-11T22:34:14.524Z,15.00
2023-04-11T22:36:47.574Z,17.10
2023-04-11T22:39:21.775Z,20.70
2023-04-11T22:41:55.717Z,21.90
2023-04-11T22:44:28.479Z,20.70
2023-04-11T22:47:13.891Z,20.30
2023-04-11T22:49:46.734Z,22.90
2023-04-11T22:52:24.412Z,26.00
2023-04-11T22:54:58.304Z,25.90
2023-04-11T22:57:31.411Z,22.40
2023-04-11T23:00:07.438Z,19.20
2023-04-11T23:02:41.351Z,17.60
2023-04-11T23:05:15.066Z,15.80
2023-04-11T23:07:48.456Z,16.00
2023-04-11T23:10:22.419Z,15.30
2023-04-11T23:13:00.251Z,15.30
2023-04-11T23:15:33.484Z,13.90
2023-04-11T23:18:07.209Z,14.30
2023-04-11T23:20:41.213Z,15.30
2023-04-11T23:23:14.182Z,12.70
2023-04-11T23:25:47.158Z,11.60
2023-04-11T23:28:20.299Z,11.30
2023-04-11T23:30:53.929Z,11.80
2023-04-11T23:33:27.005Z,13.90
2023-04-11T23:36:00.964Z,13.60
2023-04-11T23:38:34.288Z,16.20
2023-04-11T23:41:15.015Z,15.70
2023-04-11T23:43:48.573Z,17.70
2023-04-11T23:46:21.560Z,20.10
2023-04-11T23:49:01.269Z,21.70
2023-04-11T23:51:34.466Z,27.00
2023-04-11T23:54:15.050Z,43.90
2023-04-11T23:56:48.782Z,40.70
2023-04-11T23:59:21.774Z,49.90
